createdAt,value
2018-08-16T00:05:03.312Z,18.1
2018-08-16T00:15:18.866Z,17.9
2018-08-16T00:25:33.085Z,17.8
2018-08-16T00:35:46.875Z,17.6
2018-08-16T00:46:01.040Z,17.5
2018-08-16T00:56:16.728Z,17.4
2018-08-16T01:06:30.416Z,17.3
2018-08-16T01:16:44.899Z,17.1
2018-08-16T01:26:59.180Z,17.1
2018-08-16T01:37:13.219Z,17.0
2018-08-16T01:47:27.378Z,16.9
2018-08-16T01:57:41.723Z,16.8
2018-08-16T02:07:55.768Z,16.7
2018-08-16T02:18:13.344Z,16.6
2018-08-16T02:28:26.891Z,16.5
2018-08-16T02:38:41.148Z,16.4
2018-08-16T02:48:55.606Z,16.3
2018-08-16T02:59:09.832Z,16.3
2018-08-16T03:10:33.787Z,16.2
2018-08-16T03:20:47.169Z,16.1
2018-08-16T03:31:01.664Z,16.1
2018-08-16T03:41:14.504Z,16.0
2018-08-16T03:51:59.616Z,15.9
2018-08-16T04:03:04.689Z,15.8
2018-08-16T04:13:18.783Z,15.8
2018-08-16T04:23:33.095Z,15.8
2018-08-16T04:33:45.332Z,15.7
2018-08-16T04:55:36.371Z,15.5
2018-08-16T05:05:50.698Z,15.5
2018-08-16T05:16:05.197Z,15.5
2018-08-16T05:26:19.017Z,15.6
2018-08-16T05:36:33.306Z,15.6
2018-08-16T05:46:47.399Z,15.7
2018-08-16T05:57:32.856Z,16.0
2018-08-16T06:08:20.718Z,16.3
2018-08-16T06:19:07.442Z,16.5
2018-08-16T06:29:56.497Z,16.7
2018-08-16T06:40:42.010Z,17.0
2018-08-16T06:50:56.360Z,17.0
2018-08-16T07:01:11.445Z,17.3
2018-08-16T07:11:27.879Z,17.7
2018-08-16T07:21:40.019Z,18.2
2018-08-16T07:31:56.142Z,18.7
2018-08-16T07:52:27.189Z,19.5
2018-08-16T08:02:38.795Z,19.9
2018-08-16T08:12:53.225Z,20.4
2018-08-16T08:23:08.261Z,20.8
2018-08-16T08:33:42.341Z,21.4
2018-08-16T08:43:56.181Z,22.4
2018-08-16T08:54:10.206Z,24.0
2018-08-16T09:04:24.814Z,26.0
2018-08-16T09:14:39.545Z,27.5
2018-08-16T09:24:54.228Z,28.2
2018-08-16T09:35:39.549Z,29.6
2018-08-16T09:45:56.339Z,29.6
2018-08-16T09:56:15.182Z,30.7
2018-08-16T10:06:29.403Z,31.8
2018-08-16T10:16:43.800Z,32.7
2018-08-16T10:26:57.876Z,33.6
2018-08-16T10:37:46.934Z,34.8
2018-08-16T10:48:32.236Z,35.0
2018-08-16T10:58:59.779Z,35.0
2018-08-16T11:53:43.707Z,36.6
2018-08-16T12:04:48.455Z,36.6
2018-08-16T12:15:02.822Z,36.6
2018-08-16T12:25:14.522Z,36.4
2018-08-16T12:35:33.548Z,36.1
2018-08-16T13:01:44.684Z,35.6
2018-08-16T13:11:58.515Z,35.6
2018-08-16T13:22:12.705Z,35.6
2018-08-16T13:32:25.046Z,35.7
2018-08-16T13:42:37.266Z,35.7
2018-08-16T13:53:24.805Z,35.8
2018-08-16T14:04:10.905Z,36.0
2018-08-16T14:14:24.971Z,36.0
2018-08-16T14:25:33.061Z,36.3
2018-08-16T14:35:47.264Z,36.4
2018-08-16T14:47:01.477Z,36.4
2018-08-16T14:59:20.719Z,36.1
2018-08-16T15:20:38.012Z,35.2
2018-08-16T15:43:20.857Z,34.5
2018-08-16T15:53:56.699Z,33.7
2018-08-16T16:04:46.703Z,32.2
2018-08-16T16:21:37.170Z,31.6
2018-08-16T16:34:50.811Z,30.8
2018-08-16T16:46:21.072Z,30.2
2018-08-16T16:57:10.568Z,29.7
2018-08-16T17:08:14.617Z,29.7
2018-08-16T17:18:26.314Z,29.3
2018-08-16T17:28:37.895Z,28.9
2018-08-16T17:39:30.012Z,28.2
2018-08-16T17:49:47.403Z,28.2
2018-08-16T18:00:03.251Z,27.9
2018-08-16T18:11:00.836Z,27.2
2018-08-16T18:21:14.204Z,27.2
2018-08-16T18:31:53.944Z,26.8
2018-08-16T18:42:07.766Z,26.4
2018-08-16T18:55:36.262Z,25.5
2018-08-16T19:08:16.908Z,25.0
2018-08-16T19:20:10.661Z,24.4
2018-08-16T19:30:24.959Z,24.4
2018-08-16T19:40:57.251Z,24.0
2018-08-16T19:51:11.556Z,23.6
2018-08-16T20:01:58.985Z,22.8
2018-08-16T20:13:33.656Z,22.5
2018-08-16T20:24:00.348Z,22.5
2018-08-16T20:34:35.678Z,21.8
2018-08-16T20:44:50.273Z,21.7
2018-08-16T20:55:04.506Z,21.5
2018-08-16T21:05:49.514Z,21.0
2018-08-16T21:16:35.464Z,20.8
2018-08-16T21:27:21.531Z,20.6
2018-08-16T21:37:36.147Z,20.5
2018-08-16T21:48:21.463Z,20.1
2018-08-16T21:58:35.917Z,20.1
2018-08-16T22:09:21.472Z,19.7
2018-08-16T22:19:35.882Z,19.7
2018-08-16T22:29:51.657Z,19.5
2018-08-16T22:40:05.230Z,19.2
2018-08-16T22:50:19.393Z,19.0
2018-08-16T23:00:33.429Z,18.9
2018-08-16T23:11:19.188Z,18.6
2018-08-16T23:22:08.252Z,18.6
2018-08-16T23:32:22.583Z,18.5
2018-08-16T23:43:07.871Z,18.4
2018-08-16T23:53:22.488Z,18.3
